Time;durP1;ratioP1;P1;durP2;ratioP2;P2;SDS_P1;SDS_P2;PMS_P1;PMS_P2;Temp;Humidity;BMP_temperature;BMP_pressure;BME280_temperature;BME280_humidity;BME280_pressure;Samples;Min_cycle;Max_cycle;Signal;HPM_P1;HPM_P2
2022/08/13 00:01:26;;;;;;;7.95;7.07;;;;;;;;;;5030890;28;20576;-79
2022/08/13 00:03:53;;;;;;;8.70;6.65;;;;;;;;;;5016484;28;20510;-78
2022/08/13 00:06:55;;;;;;;12.73;6.97;;;;;;;;;;5016591;28;20072;-79
2022/08/13 00:09:09;;;;;;;11.88;7.25;;;;;;;;;;5015513;28;20132;-79
2022/08/13 00:14:22;;;;;;;9.40;6.80;;;;;;;;;;5012714;28;20033;-79
2022/08/13 00:16:47;;;;;;;10.82;7.30;;;;;;;;;;5009764;28;20567;-79
2022/08/13 00:19:13;;;;;;;9.90;7.68;;;;;;;;;;5012227;28;21840;-79
2022/08/13 00:21:38;;;;;;;10.73;7.47;;;;;;;;;;5027367;28;20044;-78
2022/08/13 00:24:04;;;;;;;10.63;7.18;;;;;;;;;;5025440;28;20365;-79
2022/08/13 00:26:30;;;;;;;12.25;6.65;;;;;;;;;;5009690;28;20182;-80
2022/08/13 00:28:55;;;;;;;9.70;6.57;;;;;;;;;;5008256;28;20048;-79
2022/08/13 00:31:22;;;;;;;11.20;7.07;;;;;;;;;;5011973;28;20033;-79
2022/08/13 00:33:49;;;;;;;12.05;8.07;;;;;;;;;;5024497;28;20060;-79
2022/08/13 00:36:16;;;;;;;12.07;7.80;;;;;;;;;;5013486;28;20037;-79
2022/08/13 00:38:44;;;;;;;11.50;8.45;;;;;;;;;;5009445;28;20048;-80
2022/08/13 00:41:37;;;;;;;8.43;7.13;;;;;;;;;;5009038;28;20033;-79
2022/08/13 00:43:55;;;;;;;9.20;7.45;;;;;;;;;;5007488;28;20305;-80
2022/08/13 00:46:21;;;;;;;11.52;7.40;;;;;;;;;;5008832;28;20294;-79
2022/08/13 00:48:47;;;;;;;9.80;7.30;;;;;;;;;;5022669;28;20044;-79
2022/08/13 00:51:13;;;;;;;11.73;7.90;;;;;;;;;;5009234;28;20041;-81
2022/08/13 00:53:39;;;;;;;10.48;7.35;;;;;;;;;;5008032;28;20059;-79
2022/08/13 00:56:10;;;;;;;10.15;7.60;;;;;;;;;;5008969;28;21766;-79
2022/08/13 00:58:38;;;;;;;12.13;8.05;;;;;;;;;;5009553;28;20094;-79
2022/08/13 01:01:04;;;;;;;10.52;7.65;;;;;;;;;;5009473;28;20689;-80
2022/08/13 01:03:31;;;;;;;9.02;7.28;;;;;;;;;;5006535;28;20077;-80
2022/08/13 01:05:59;;;;;;;12.40;8.00;;;;;;;;;;5008001;28;20033;-80
2022/08/13 01:08:25;;;;;;;10.50;8.57;;;;;;;;;;5006750;28;20130;-80
2022/08/13 01:10:50;;;;;;;12.00;8.43;;;;;;;;;;5009251;28;20408;-79
2022/08/13 01:13:20;;;;;;;15.38;8.18;;;;;;;;;;5008040;28;20036;-81
2022/08/13 01:15:46;;;;;;;12.50;8.82;;;;;;;;;;5008928;28;20046;-79
2022/08/13 01:18:13;;;;;;;9.40;8.38;;;;;;;;;;5011005;28;20127;-79
2022/08/13 01:20:43;;;;;;;12.55;9.43;;;;;;;;;;5011253;28;20205;-79
2022/08/13 01:23:09;;;;;;;10.88;9.73;;;;;;;;;;5011938;28;20036;-79
2022/08/13 01:25:34;;;;;;;12.50;9.82;;;;;;;;;;5009881;28;20474;-79
2022/08/13 01:28:00;;;;;;;14.50;11.05;;;;;;;;;;5010010;28;20545;-79
2022/08/13 01:30:25;;;;;;;13.25;10.25;;;;;;;;;;5010710;28;20037;-78
2022/08/13 01:32:51;;;;;;;13.57;11.40;;;;;;;;;;5013803;28;20589;-79
2022/08/13 01:35:18;;;;;;;14.63;12.50;;;;;;;;;;5012289;28;20033;-78
2022/08/13 01:37:48;;;;;;;15.20;11.18;;;;;;;;;;5010524;28;20071;-78
2022/08/13 01:40:13;;;;;;;15.55;11.57;;;;;;;;;;5011840;28;20124;-78
2022/08/13 01:42:40;;;;;;;12.68;11.23;;;;;;;;;;5009361;28;20398;-78
2022/08/13 01:45:05;;;;;;;11.68;10.45;;;;;;;;;;5010752;28;20047;-79
2022/08/13 01:50:30;;;;;;;15.95;11.95;;;;;;;;;;5015278;28;20134;-78
2022/08/13 01:53:02;;;;;;;11.80;10.60;;;;;;;;;;5005679;28;20162;-79
2022/08/13 01:55:39;;;;;;;13.25;10.88;;;;;;;;;;5014250;28;20059;-78
2022/08/13 01:58:09;;;;;;;14.48;10.75;;;;;;;;;;5013687;28;20036;-79
2022/08/13 02:00:36;;;;;;;12.27;9.90;;;;;;;;;;5015353;28;20380;-80
2022/08/13 02:03:05;;;;;;;12.32;9.48;;;;;;;;;;5028543;28;20505;-80
2022/08/13 02:05:31;;;;;;;13.48;10.90;;;;;;;;;;5015636;28;20037;-79
2022/08/13 02:07:57;;;;;;;12.50;9.82;;;;;;;;;;5013460;28;20223;-80
2022/08/13 02:10:23;;;;;;;12.90;9.57;;;;;;;;;;5011791;28;20263;-79
2022/08/13 02:12:49;;;;;;;14.35;9.30;;;;;;;;;;5013410;28;20037;-80
2022/08/13 02:15:15;;;;;;;10.80;8.88;;;;;;;;;;5015739;28;20033;-80
2022/08/13 02:17:41;;;;;;;11.98;9.07;;;;;;;;;;5014402;28;20065;-80
2022/08/13 02:20:07;;;;;;;9.63;8.50;;;;;;;;;;5015061;28;20051;-79
2022/08/13 02:22:33;;;;;;;12.75;8.18;;;;;;;;;;5014985;28;20393;-80
2022/08/13 02:25:01;;;;;;;13.95;7.05;;;;;;;;;;5031777;28;20025;-79
2022/08/13 02:27:26;;;;;;;11.45;7.43;;;;;;;;;;5018582;28;20148;-80
2022/08/13 02:29:55;;;;;;;9.10;6.63;;;;;;;;;;5020464;28;20553;-77
2022/08/13 02:32:23;;;;;;;12.35;6.70;;;;;;;;;;5020308;28;20033;-79
2022/08/13 02:34:49;;;;;;;10.13;6.30;;;;;;;;;;5048179;28;20035;-79
2022/08/13 02:37:15;;;;;;;13.15;5.65;;;;;;;;;;5018808;28;20256;-78
2022/08/13 02:39:42;;;;;;;11.30;6.43;;;;;;;;;;5024095;28;20456;-78
2022/08/13 02:42:08;;;;;;;11.13;6.10;;;;;;;;;;5024403;28;20174;-78
2022/08/13 02:44:34;;;;;;;9.85;6.50;;;;;;;;;;5023118;28;20354;-78
2022/08/13 02:47:00;;;;;;;8.70;5.68;;;;;;;;;;5020997;28;20101;-79
2022/08/13 02:49:25;;;;;;;8.50;5.78;;;;;;;;;;5025811;28;20064;-78
2022/08/13 02:51:51;;;;;;;6.97;5.25;;;;;;;;;;5019868;28;20055;-80
2022/08/13 02:54:17;;;;;;;10.43;5.68;;;;;;;;;;5024484;28;20040;-79
2022/08/13 02:56:43;;;;;;;9.20;5.78;;;;;;;;;;5022292;28;20762;-78
2022/08/13 02:59:10;;;;;;;8.55;6.22;;;;;;;;;;5029643;28;20136;-77
2022/08/13 03:01:39;;;;;;;7.78;5.30;;;;;;;;;;5021198;28;20344;-78
2022/08/13 03:04:06;;;;;;;8.93;5.70;;;;;;;;;;5020989;28;20376;-79
2022/08/13 03:06:31;;;;;;;9.82;5.38;;;;;;;;;;5023072;28;21873;-79
2022/08/13 03:08:56;;;;;;;7.80;5.25;;;;;;;;;;5045585;28;20577;-79
2022/08/13 03:11:22;;;;;;;9.02;5.50;;;;;;;;;;5024257;28;20029;-78
2022/08/13 03:13:51;;;;;;;7.40;5.22;;;;;;;;;;5037038;28;20061;-79
2022/08/13 03:16:22;;;;;;;8.88;5.63;;;;;;;;;;5018349;28;20043;-78
2022/08/13 03:18:48;;;;;;;8.13;5.22;;;;;;;;;;5022940;28;20213;-78
2022/08/13 03:21:18;;;;;;;9.15;5.10;;;;;;;;;;5017888;28;20462;-80
2022/08/13 03:23:45;;;;;;;6.13;4.70;;;;;;;;;;5018969;28;20032;-78
2022/08/13 03:26:11;;;;;;;6.70;5.03;;;;;;;;;;5020950;28;20110;-79
2022/08/13 03:28:37;;;;;;;5.50;4.32;;;;;;;;;;5019882;28;20052;-78
2022/08/13 03:31:03;;;;;;;9.75;4.80;;;;;;;;;;5025389;28;20058;-78
2022/08/13 03:33:28;;;;;;;7.85;4.18;;;;;;;;;;5014360;28;20069;-79
2022/08/13 03:35:54;;;;;;;7.53;4.35;;;;;;;;;;5023779;28;20224;-79
2022/08/13 03:38:19;;;;;;;10.02;4.18;;;;;;;;;;5019991;28;20138;-78
2022/08/13 03:41:11;;;;;;;7.00;4.32;;;;;;;;;;5031921;28;20248;-79
2022/08/13 03:43:37;;;;;;;10.43;4.40;;;;;;;;;;5029345;28;20583;-79
2022/08/13 03:46:02;;;;;;;4.88;4.38;;;;;;;;;;5016128;28;20033;-78
2022/08/13 03:48:27;;;;;;;7.57;4.55;;;;;;;;;;5020386;28;21797;-80
2022/08/13 03:50:53;;;;;;;5.40;4.43;;;;;;;;;;5027820;28;20036;-76
2022/08/13 03:53:20;;;;;;;7.90;4.38;;;;;;;;;;5021474;28;20766;-78
2022/08/13 03:55:46;;;;;;;7.35;4.35;;;;;;;;;;5013766;28;20045;-77
2022/08/13 03:58:12;;;;;;;4.78;4.28;;;;;;;;;;5013915;28;20183;-78
2022/08/13 04:00:39;;;;;;;8.88;4.40;;;;;;;;;;5015545;28;20170;-76
2022/08/13 04:03:13;;;;;;;6.15;4.18;;;;;;;;;;5012438;28;20171;-78
2022/08/13 04:05:39;;;;;;;10.65;4.00;;;;;;;;;;5011704;28;20447;-78
2022/08/13 04:08:05;;;;;;;7.63;4.00;;;;;;;;;;5018654;28;20045;-78
2022/08/13 04:10:30;;;;;;;5.88;3.80;;;;;;;;;;5012393;28;20326;-78
2022/08/13 04:12:56;;;;;;;7.57;3.92;;;;;;;;;;5013220;28;20029;-79
2022/08/13 04:15:24;;;;;;;11.10;4.20;;;;;;;;;;5012364;28;20569;-79
2022/08/13 04:17:52;;;;;;;5.82;4.22;;;;;;;;;;5013164;28;20032;-79
2022/08/13 04:20:18;;;;;;;5.72;4.03;;;;;;;;;;5029039;28;20934;-79
2022/08/13 04:22:46;;;;;;;8.43;3.88;;;;;;;;;;5011645;28;20628;-79
2022/08/13 04:25:13;;;;;;;10.45;4.07;;;;;;;;;;5011298;28;20422;-79
2022/08/13 04:27:39;;;;;;;7.50;3.92;;;;;;;;;;5022813;28;20175;-79
2022/08/13 04:30:05;;;;;;;7.95;3.67;;;;;;;;;;5012907;28;20446;-77
2022/08/13 04:32:40;;;;;;;7.70;3.50;;;;;;;;;;5010618;28;20045;-77
2022/08/13 04:35:06;;;;;;;4.80;3.65;;;;;;;;;;5011769;28;20037;-78
2022/08/13 04:37:34;;;;;;;6.10;3.90;;;;;;;;;;5026919;28;20398;-78
2022/08/13 04:39:59;;;;;;;4.20;3.50;;;;;;;;;;5028700;28;20476;-79
2022/08/13 04:42:25;;;;;;;6.53;3.75;;;;;;;;;;5012101;28;20043;-78
2022/08/13 04:44:50;;;;;;;5.30;3.40;;;;;;;;;;5012297;28;20154;-78
2022/08/13 04:47:17;;;;;;;6.65;3.42;;;;;;;;;;5012184;28;20056;-79
2022/08/13 04:49:48;;;;;;;5.85;3.83;;;;;;;;;;5011930;28;20114;-78
2022/08/13 04:52:13;;;;;;;6.43;3.20;;;;;;;;;;5010075;28;20102;-78
2022/08/13 04:54:39;;;;;;;5.75;3.42;;;;;;;;;;5029703;28;20065;-79
2022/08/13 04:57:04;;;;;;;7.40;3.50;;;;;;;;;;5010001;28;20044;-74
2022/08/13 04:59:29;;;;;;;5.07;2.90;;;;;;;;;;5014275;28;20196;-78
2022/08/13 05:01:55;;;;;;;5.75;3.35;;;;;;;;;;5014571;28;20067;-78
2022/08/13 05:04:20;;;;;;;5.88;3.22;;;;;;;;;;5014387;28;20252;-79
2022/08/13 05:06:51;;;;;;;5.13;3.25;;;;;;;;;;5016251;28;20874;-79
2022/08/13 05:09:16;;;;;;;6.97;3.20;;;;;;;;;;5014566;28;20106;-79
2022/08/13 05:11:41;;;;;;;6.18;3.20;;;;;;;;;;5013405;28;20185;-78
2022/08/13 05:14:06;;;;;;;5.20;3.30;;;;;;;;;;5009231;28;20096;-78
2022/08/13 05:16:34;;;;;;;4.55;3.20;;;;;;;;;;5011751;28;20130;-79
2022/08/13 05:18:59;;;;;;;6.20;3.33;;;;;;;;;;5042049;28;20044;-79
2022/08/13 05:21:27;;;;;;;5.13;3.05;;;;;;;;;;5009896;28;20043;-76
2022/08/13 05:23:55;;;;;;;5.18;2.90;;;;;;;;;;5023692;28;20051;-79
2022/08/13 05:26:21;;;;;;;5.82;3.03;;;;;;;;;;5010488;28;20128;-78
2022/08/13 05:28:48;;;;;;;7.18;3.33;;;;;;;;;;5009171;28;20281;-78
2022/08/13 05:31:13;;;;;;;6.00;3.20;;;;;;;;;;5008736;28;20029;-79
2022/08/13 05:33:39;;;;;;;5.60;2.75;;;;;;;;;;5025076;28;20155;-79
2022/08/13 05:36:05;;;;;;;7.30;3.22;;;;;;;;;;5010988;28;20043;-78
2022/08/13 05:38:30;;;;;;;7.07;2.92;;;;;;;;;;5013126;28;20128;-77
2022/08/13 05:40:58;;;;;;;7.07;2.90;;;;;;;;;;5015986;28;20075;-77
2022/08/13 05:43:27;;;;;;;5.10;2.78;;;;;;;;;;5017295;28;20040;-78
2022/08/13 05:45:59;;;;;;;4.65;2.65;;;;;;;;;;5017603;28;20303;-78
2022/08/13 05:48:26;;;;;;;5.82;3.10;;;;;;;;;;5013936;28;20307;-79
2022/08/13 05:50:52;;;;;;;4.32;2.88;;;;;;;;;;5015649;28;20103;-73
2022/08/13 05:53:17;;;;;;;6.47;3.05;;;;;;;;;;5013273;28;20033;-74
2022/08/13 05:55:43;;;;;;;5.47;3.22;;;;;;;;;;5024932;28;20120;-75
2022/08/13 05:58:10;;;;;;;5.47;3.28;;;;;;;;;;5008705;28;20136;-74
2022/08/13 06:03:31;;;;;;;9.45;2.90;;;;;;;;;;5010386;28;20051;-74
2022/08/13 06:06:06;;;;;;;5.85;2.95;;;;;;;;;;5012398;28;20037;-74
2022/08/13 06:08:36;;;;;;;3.83;2.72;;;;;;;;;;5024499;28;20044;-74
2022/08/13 06:11:02;;;;;;;6.93;3.08;;;;;;;;;;5008449;28;20124;-74
2022/08/13 06:13:28;;;;;;;4.07;2.72;;;;;;;;;;5012029;28;20029;-74
2022/08/13 06:15:58;;;;;;;10.32;2.95;;;;;;;;;;5011613;28;20245;-74
2022/08/13 06:18:34;;;;;;;6.75;2.63;;;;;;;;;;5011146;28;20052;-67
2022/08/13 06:21:00;;;;;;;5.32;2.90;;;;;;;;;;5010383;28;20040;-74
2022/08/13 06:23:28;;;;;;;7.00;2.90;;;;;;;;;;5009033;28;20068;-67
2022/08/13 06:25:54;;;;;;;6.80;2.72;;;;;;;;;;5008853;28;20129;-67
2022/08/13 06:28:20;;;;;;;5.03;2.90;;;;;;;;;;5010039;28;20421;-75
2022/08/13 06:30:47;;;;;;;5.95;2.47;;;;;;;;;;5010365;28;20064;-66
2022/08/13 06:33:13;;;;;;;8.65;2.78;;;;;;;;;;5007973;28;20049;-67
2022/08/13 06:35:41;;;;;;;5.28;2.53;;;;;;;;;;5007791;28;20556;-74
2022/08/13 06:38:08;;;;;;;6.35;2.78;;;;;;;;;;5010038;28;20498;-67
2022/08/13 06:40:35;;;;;;;5.55;2.67;;;;;;;;;;5009122;28;20143;-67
2022/08/13 06:43:05;;;;;;;5.03;2.45;;;;;;;;;;5014967;28;20032;-74
2022/08/13 06:45:30;;;;;;;5.32;2.20;;;;;;;;;;5018107;28;20568;-67
2022/08/13 06:47:57;;;;;;;5.47;2.20;;;;;;;;;;5011604;28;20294;-67
2022/08/13 06:50:22;;;;;;;6.68;2.35;;;;;;;;;;5025259;28;20253;-66
2022/08/13 06:52:50;;;;;;;6.47;2.25;;;;;;;;;;5008071;28;20354;-68
2022/08/13 06:55:17;;;;;;;7.75;2.20;;;;;;;;;;5022208;28;20574;-66
2022/08/13 06:57:43;;;;;;;5.70;2.10;;;;;;;;;;5008648;28;20040;-67
2022/08/13 07:00:11;;;;;;;7.80;2.50;;;;;;;;;;5010694;28;20037;-67
2022/08/13 07:02:42;;;;;;;5.35;2.50;;;;;;;;;;5026645;28;20553;-72
2022/08/13 07:05:08;;;;;;;6.55;2.13;;;;;;;;;;5012772;28;20029;-72
2022/08/13 07:07:33;;;;;;;6.55;2.20;;;;;;;;;;5026251;28;20078;-71
2022/08/13 07:09:59;;;;;;;3.20;2.17;;;;;;;;;;5024643;28;20704;-73
2022/08/13 07:12:28;;;;;;;6.55;2.13;;;;;;;;;;5021759;28;20629;-74
2022/08/13 07:14:53;;;;;;;4.85;2.03;;;;;;;;;;5021671;28;20580;-71
2022/08/13 07:17:20;;;;;;;3.05;1.60;;;;;;;;;;5039505;28;20064;-72
2022/08/13 07:19:48;;;;;;;6.70;1.63;;;;;;;;;;5028135;28;20033;-72
2022/08/13 07:22:16;;;;;;;10.02;2.00;;;;;;;;;;5052213;28;20264;-72
2022/08/13 07:24:50;;;;;;;6.63;2.00;;;;;;;;;;5040351;28;20037;-72
2022/08/13 07:27:15;;;;;;;4.43;2.00;;;;;;;;;;5043913;28;20028;-72
2022/08/13 07:29:49;;;;;;;6.35;1.98;;;;;;;;;;5032663;28;20683;-73
2022/08/13 07:32:17;;;;;;;11.00;2.17;;;;;;;;;;5038482;28;20067;-73
2022/08/13 07:34:42;;;;;;;8.90;2.00;;;;;;;;;;5043862;28;20048;-74
2022/08/13 07:37:17;;;;;;;4.50;1.80;;;;;;;;;;5053301;28;20520;-71
2022/08/13 07:39:44;;;;;;;5.22;1.83;;;;;;;;;;5042272;28;20032;-72
2022/08/13 07:42:10;;;;;;;5.18;1.80;;;;;;;;;;5036907;28;20032;-71
2022/08/13 07:44:35;;;;;;;4.80;1.90;;;;;;;;;;5029289;28;20194;-73
2022/08/13 07:47:01;;;;;;;8.52;1.70;;;;;;;;;;5033041;28;20447;-72
2022/08/13 07:49:27;;;;;;;3.17;1.67;;;;;;;;;;5029908;28;20044;-72
2022/08/13 07:51:54;;;;;;;6.07;1.80;;;;;;;;;;5025364;28;20036;-73
2022/08/13 07:54:19;;;;;;;6.80;2.30;;;;;;;;;;5026590;28;20268;-71
2022/08/13 07:56:47;;;;;;;5.80;1.70;;;;;;;;;;5029677;28;20086;-72
2022/08/13 07:59:17;;;;;;;7.95;1.95;;;;;;;;;;5031923;28;20399;-72
2022/08/13 08:01:44;;;;;;;5.20;1.73;;;;;;;;;;5020418;28;20762;-71
2022/08/13 08:04:12;;;;;;;6.80;1.70;;;;;;;;;;5016686;28;20437;-74
2022/08/13 08:06:38;;;;;;;8.27;2.08;;;;;;;;;;5036721;28;20214;-72
2022/08/13 08:09:04;;;;;;;5.68;1.70;;;;;;;;;;5022574;28;20071;-73
2022/08/13 08:14:19;;;;;;;8.80;1.55;;;;;;;;;;5036253;28;20093;-72
2022/08/13 08:16:46;;;;;;;5.82;1.70;;;;;;;;;;5019736;28;20583;-68
2022/08/13 08:19:13;;;;;;;6.72;1.70;;;;;;;;;;5021818;28;20040;-69
2022/08/13 08:21:40;;;;;;;5.20;1.70;;;;;;;;;;5018557;28;20488;-68
2022/08/13 08:24:05;;;;;;;6.13;1.58;;;;;;;;;;5030441;28;20036;-68
2022/08/13 08:26:31;;;;;;;4.25;1.35;;;;;;;;;;5020699;28;20489;-70
2022/08/13 08:28:58;;;;;;;6.70;1.85;;;;;;;;;;5018228;28;20127;-71
2022/08/13 08:31:24;;;;;;;3.10;1.30;;;;;;;;;;5019729;28;20039;-69
2022/08/13 08:33:55;;;;;;;25.25;2.13;;;;;;;;;;5021117;28;20036;-66
2022/08/13 08:36:21;;;;;;;7.28;1.73;;;;;;;;;;5018635;28;20832;-68
2022/08/13 08:44:20;;;;;;;6.03;1.60;;;;;;;;;;5018132;28;20067;-71
2022/08/13 08:46:47;;;;;;;4.13;1.52;;;;;;;;;;5022812;28;20147;-74
2022/08/13 08:49:13;;;;;;;5.28;1.75;;;;;;;;;;5037662;28;20097;-73
2022/08/13 08:51:38;;;;;;;4.82;1.88;;;;;;;;;;5034919;28;20260;-71
2022/08/13 08:54:04;;;;;;;3.70;1.38;;;;;;;;;;5043589;28;20082;-72
2022/08/13 08:56:34;;;;;;;7.05;1.27;;;;;;;;;;5032498;28;20063;-73
2022/08/13 08:58:59;;;;;;;8.87;1.50;;;;;;;;;;5030123;28;20064;-69
2022/08/13 09:01:25;;;;;;;6.63;1.48;;;;;;;;;;5023044;28;20889;-69
2022/08/13 09:03:53;;;;;;;4.28;1.40;;;;;;;;;;5019214;28;20104;-69
2022/08/13 09:06:23;;;;;;;3.35;1.40;;;;;;;;;;5022699;28;20043;-67
2022/08/13 09:08:52;;;;;;;5.18;1.50;;;;;;;;;;5022586;28;20075;-70
2022/08/13 09:11:19;;;;;;;5.43;1.30;;;;;;;;;;5021862;28;20087;-68
2022/08/13 09:13:47;;;;;;;3.15;1.40;;;;;;;;;;5025127;28;20047;-67
2022/08/13 09:16:13;;;;;;;3.83;1.10;;;;;;;;;;5021569;28;20043;-66
2022/08/13 09:18:43;;;;;;;3.28;1.52;;;;;;;;;;5021075;28;20039;-67
2022/08/13 09:21:08;;;;;;;2.78;1.40;;;;;;;;;;5023051;28;20082;-67
2022/08/13 09:23:34;;;;;;;3.97;1.30;;;;;;;;;;5036967;28;20072;-67
2022/08/13 09:26:04;;;;;;;4.50;1.33;;;;;;;;;;5021678;28;20032;-68
2022/08/13 09:28:30;;;;;;;7.53;1.35;;;;;;;;;;5025453;28;20630;-68
2022/08/13 09:30:55;;;;;;;4.50;1.30;;;;;;;;;;5009278;28;20611;-68
2022/08/13 09:33:23;;;;;;;5.72;1.10;;;;;;;;;;5035161;28;20178;-68
2022/08/13 09:35:49;;;;;;;5.35;1.63;;;;;;;;;;5017932;28;20037;-68
2022/08/13 09:38:15;;;;;;;6.30;1.40;;;;;;;;;;5015434;28;20037;-72
2022/08/13 09:40:45;;;;;;;3.50;1.20;;;;;;;;;;5025718;28;20043;-71
2022/08/13 09:43:17;;;;;;;5.47;1.10;;;;;;;;;;5030590;28;20673;-71
2022/08/13 09:45:45;;;;;;;5.80;1.20;;;;;;;;;;5040987;28;20587;-67
2022/08/13 09:48:10;;;;;;;8.48;1.48;;;;;;;;;;5017836;28;20044;-68
2022/08/13 09:50:36;;;;;;;4.72;1.30;;;;;;;;;;5014935;28;20083;-72
2022/08/13 09:53:02;;;;;;;4.10;1.20;;;;;;;;;;5026869;28;20033;-71
2022/08/13 09:55:27;;;;;;;5.30;1.30;;;;;;;;;;5020265;28;20126;-69
2022/08/13 09:57:59;;;;;;;4.25;1.10;;;;;;;;;;5026355;28;22299;-68
2022/08/13 10:00:27;;;;;;;2.63;1.20;;;;;;;;;;5023692;28;21060;-67
2022/08/13 10:02:56;;;;;;;6.03;1.23;;;;;;;;;;5023975;28;20065;-71
2022/08/13 10:05:26;;;;;;;7.10;1.10;;;;;;;;;;5023025;28;20126;-69
2022/08/13 10:07:56;;;;;;;5.28;1.10;;;;;;;;;;5022897;28;20033;-69
2022/08/13 10:10:22;;;;;;;3.70;0.98;;;;;;;;;;5007951;28;20717;-68
2022/08/13 10:12:47;;;;;;;5.50;1.10;;;;;;;;;;5022664;28;20574;-68
2022/08/13 10:15:13;;;;;;;8.10;0.98;;;;;;;;;;5024548;28;20032;-68
2022/08/13 10:17:45;;;;;;;3.45;1.00;;;;;;;;;;5026742;28;20028;-66
2022/08/13 10:20:15;;;;;;;3.40;0.90;;;;;;;;;;5022170;27;20120;-69
2022/08/13 10:22:40;;;;;;;3.05;0.90;;;;;;;;;;5023916;27;20044;-69
2022/08/13 10:25:05;;;;;;;3.38;1.17;;;;;;;;;;5019590;27;20032;-68
2022/08/13 10:27:35;;;;;;;4.70;0.90;;;;;;;;;;5010663;28;20109;-68
2022/08/13 10:30:01;;;;;;;4.55;1.08;;;;;;;;;;5011868;28;20486;-69
2022/08/13 10:32:27;;;;;;;5.07;1.00;;;;;;;;;;5033207;28;20116;-72
2022/08/13 10:34:52;;;;;;;5.25;1.30;;;;;;;;;;5056550;28;20511;-72
2022/08/13 10:37:17;;;;;;;2.83;0.80;;;;;;;;;;5028990;28;20032;-72
2022/08/13 10:39:42;;;;;;;5.50;1.17;;;;;;;;;;5045031;28;20346;-72
2022/08/13 10:42:08;;;;;;;2.17;0.90;;;;;;;;;;5042281;28;20040;-72
2022/08/13 10:44:34;;;;;;;1.90;0.90;;;;;;;;;;5060806;28;20578;-73
2022/08/13 10:46:59;;;;;;;3.35;1.05;;;;;;;;;;5051326;28;20028;-72
2022/08/13 10:49:29;;;;;;;4.72;1.15;;;;;;;;;;5048564;28;20371;-72
2022/08/13 10:51:55;;;;;;;2.88;0.90;;;;;;;;;;5043745;28;20082;-69
2022/08/13 10:54:21;;;;;;;6.90;0.90;;;;;;;;;;5036768;28;20033;-68
2022/08/13 10:56:46;;;;;;;1.40;0.90;;;;;;;;;;5024062;28;20056;-68
2022/08/13 10:59:12;;;;;;;3.88;1.00;;;;;;;;;;5025618;28;20093;-67
2022/08/13 11:01:37;;;;;;;4.10;1.10;;;;;;;;;;5050723;28;20044;-72
2022/08/13 11:04:05;;;;;;;3.53;0.88;;;;;;;;;;5050240;28;20051;-73
2022/08/13 11:06:33;;;;;;;6.18;0.90;;;;;;;;;;5038601;28;20033;-73
2022/08/13 11:09:04;;;;;;;3.03;0.90;;;;;;;;;;5043417;28;20060;-72
2022/08/13 11:11:30;;;;;;;2.08;0.95;;;;;;;;;;5031446;28;20044;-68
2022/08/13 11:13:55;;;;;;;1.98;0.70;;;;;;;;;;5019041;28;20064;-69
2022/08/13 11:18:58;;;;;;;2.22;0.80;;;;;;;;;;5019924;28;20564;-69
2022/08/13 11:21:24;;;;;;;1.33;0.85;;;;;;;;;;5035378;28;20193;-69
2022/08/13 11:23:49;;;;;;;2.00;0.90;;;;;;;;;;5022298;28;20037;-71
2022/08/13 11:26:15;;;;;;;4.57;0.90;;;;;;;;;;5033219;28;20043;-70
2022/08/13 11:28:40;;;;;;;3.08;0.90;;;;;;;;;;5034313;28;20044;-75
2022/08/13 11:31:05;;;;;;;4.15;0.85;;;;;;;;;;5025092;28;20492;-68
2022/08/13 11:33:31;;;;;;;3.75;1.02;;;;;;;;;;5021777;28;20041;-68
2022/08/13 11:35:56;;;;;;;2.72;0.80;;;;;;;;;;5019180;28;20152;-69
2022/08/13 11:38:22;;;;;;;1.42;0.80;;;;;;;;;;5023236;28;20713;-72
2022/08/13 11:40:51;;;;;;;1.90;0.60;;;;;;;;;;5049547;28;20028;-68
2022/08/13 11:43:17;;;;;;;4.60;0.90;;;;;;;;;;5019530;28;20173;-70
2022/08/13 11:45:45;;;;;;;3.85;0.80;;;;;;;;;;5017134;28;20265;-67
2022/08/13 11:48:11;;;;;;;1.25;0.80;;;;;;;;;;5018350;28;20444;-68
2022/08/13 11:50:36;;;;;;;4.60;0.82;;;;;;;;;;5024716;28;20037;-67
2022/08/13 11:53:01;;;;;;;4.25;0.85;;;;;;;;;;5033883;28;20295;-68
2022/08/13 11:55:27;;;;;;;1.83;0.80;;;;;;;;;;5020965;28;20700;-67
2022/08/13 11:57:59;;;;;;;3.60;0.73;;;;;;;;;;5021089;28;20348;-68
2022/08/13 12:00:26;;;;;;;2.05;0.68;;;;;;;;;;5037058;28;20040;-68
2022/08/13 12:02:54;;;;;;;4.50;0.90;;;;;;;;;;5032921;28;22624;-68
2022/08/13 12:05:19;;;;;;;2.15;0.90;;;;;;;;;;5024315;28;20501;-68
2022/08/13 12:07:44;;;;;;;2.85;0.85;;;;;;;;;;5019998;28;21765;-68
2022/08/13 12:10:10;;;;;;;2.95;0.90;;;;;;;;;;5021522;28;20654;-71
2022/08/13 12:12:38;;;;;;;3.08;0.88;;;;;;;;;;5018899;28;20055;-69
2022/08/13 12:15:04;;;;;;;1.45;0.98;;;;;;;;;;5020138;28;20712;-69
2022/08/13 12:17:29;;;;;;;5.88;0.98;;;;;;;;;;5033921;28;20156;-68
2022/08/13 12:19:55;;;;;;;1.77;0.80;;;;;;;;;;5021945;28;20101;-69
2022/08/13 12:22:23;;;;;;;2.70;0.90;;;;;;;;;;5029194;28;21484;-69
2022/08/13 12:24:48;;;;;;;2.80;0.93;;;;;;;;;;5013824;28;20034;-68
2022/08/13 12:27:14;;;;;;;3.78;1.00;;;;;;;;;;5020106;28;20091;-69
2022/08/13 12:29:41;;;;;;;2.88;0.90;;;;;;;;;;5023281;28;20470;-69
2022/08/13 12:32:09;;;;;;;1.80;0.90;;;;;;;;;;5034302;28;20192;-68
2022/08/13 12:34:36;;;;;;;3.25;1.00;;;;;;;;;;5021979;28;20193;-69
2022/08/13 12:37:04;;;;;;;2.45;1.00;;;;;;;;;;5033236;28;20468;-69
2022/08/13 12:39:32;;;;;;;2.45;1.00;;;;;;;;;;5021799;28;20301;-69
2022/08/13 12:41:57;;;;;;;2.38;1.00;;;;;;;;;;5021009;28;20520;-68
2022/08/13 12:44:23;;;;;;;3.38;1.27;;;;;;;;;;5033470;28;20043;-69
2022/08/13 12:46:48;;;;;;;6.00;1.48;;;;;;;;;;5020641;28;20029;-69
2022/08/13 12:49:13;;;;;;;3.60;1.10;;;;;;;;;;5024544;28;20110;-69
2022/08/13 12:51:39;;;;;;;2.92;1.02;;;;;;;;;;5021181;28;21899;-70
2022/08/13 12:54:04;;;;;;;5.10;0.90;;;;;;;;;;5015690;28;20110;-70
2022/08/13 12:56:32;;;;;;;2.97;1.00;;;;;;;;;;5018467;28;20710;-69
2022/08/13 12:58:58;;;;;;;2.17;1.02;;;;;;;;;;5017691;28;20032;-69
2022/08/13 13:01:26;;;;;;;6.00;1.10;;;;;;;;;;5001448;28;20317;-69
2022/08/13 13:03:51;;;;;;;3.92;1.10;;;;;;;;;;5010210;28;20033;-69
2022/08/13 13:06:17;;;;;;;3.20;1.00;;;;;;;;;;5012356;28;20265;-69
2022/08/13 13:08:43;;;;;;;2.42;1.00;;;;;;;;;;4997362;28;20604;-69
2022/08/13 13:11:09;;;;;;;4.55;1.52;;;;;;;;;;5008853;28;20037;-69
2022/08/13 13:13:35;;;;;;;3.90;1.20;;;;;;;;;;4998048;28;20040;-69
2022/08/13 13:16:07;;;;;;;5.93;1.20;;;;;;;;;;5011235;28;20033;-69
2022/08/13 13:18:33;;;;;;;2.10;1.10;;;;;;;;;;4996167;28;20036;-69
2022/08/13 13:20:59;;;;;;;4.32;1.10;;;;;;;;;;4998837;28;20026;-70
2022/08/13 13:23:29;;;;;;;2.90;1.55;;;;;;;;;;4997251;28;20520;-69
2022/08/13 13:25:55;;;;;;;3.65;1.10;;;;;;;;;;4996892;28;25286;-69
2022/08/13 13:28:25;;;;;;;5.10;1.30;;;;;;;;;;4997617;28;20512;-69
2022/08/13 13:30:54;;;;;;;4.32;1.02;;;;;;;;;;4994091;28;20648;-70
2022/08/13 13:33:20;;;;;;;6.35;1.25;;;;;;;;;;4996026;28;20261;-69
2022/08/13 13:35:46;;;;;;;4.85;1.30;;;;;;;;;;4997032;28;20143;-69
2022/08/13 13:38:13;;;;;;;4.32;1.20;;;;;;;;;;4999548;28;20045;-68
2022/08/13 13:40:41;;;;;;;5.70;1.30;;;;;;;;;;4994687;28;20571;-69
2022/08/13 13:43:06;;;;;;;2.17;1.00;;;;;;;;;;4997663;28;20364;-68
2022/08/13 13:45:32;;;;;;;6.47;1.35;;;;;;;;;;5010515;28;20068;-69
2022/08/13 13:48:00;;;;;;;4.93;1.30;;;;;;;;;;4997402;28;20032;-69
2022/08/13 13:50:25;;;;;;;4.20;1.25;;;;;;;;;;4998342;28;22123;-69
2022/08/13 13:52:53;;;;;;;4.68;1.00;;;;;;;;;;4982635;28;20051;-69
2022/08/13 13:55:21;;;;;;;6.28;1.10;;;;;;;;;;4996087;28;20128;-70
2022/08/13 13:57:46;;;;;;;3.85;1.00;;;;;;;;;;4995699;28;20045;-68
2022/08/13 14:00:12;;;;;;;7.40;1.15;;;;;;;;;;5018817;28;20523;-70
2022/08/13 14:02:46;;;;;;;3.72;1.20;;;;;;;;;;5013001;28;20190;-70
2022/08/13 14:05:11;;;;;;;2.92;1.25;;;;;;;;;;5016287;28;20500;-71
2022/08/13 14:07:38;;;;;;;1.85;1.00;;;;;;;;;;5012748;28;20060;-71
2022/08/13 14:10:04;;;;;;;3.35;1.40;;;;;;;;;;5015990;28;20040;-70
2022/08/13 14:12:30;;;;;;;4.18;1.20;;;;;;;;;;5004465;28;20505;-70
2022/08/13 14:14:55;;;;;;;2.47;1.20;;;;;;;;;;5024811;28;20083;-69
2022/08/13 14:17:20;;;;;;;6.85;1.10;;;;;;;;;;5019097;28;20036;-69
2022/08/13 14:19:47;;;;;;;4.00;1.35;;;;;;;;;;5012891;28;20157;-71
2022/08/13 14:22:13;;;;;;;2.95;1.13;;;;;;;;;;5016219;28;20032;-71
2022/08/13 14:24:40;;;;;;;5.28;1.25;;;;;;;;;;5016302;28;20047;-70
2022/08/13 14:27:06;;;;;;;4.15;1.30;;;;;;;;;;5016569;28;21610;-70
2022/08/13 14:29:32;;;;;;;6.32;1.40;;;;;;;;;;5013708;28;20565;-70
2022/08/13 14:31:58;;;;;;;3.85;1.17;;;;;;;;;;5014169;28;20033;-70
2022/08/13 14:34:23;;;;;;;3.53;1.23;;;;;;;;;;5026879;28;20068;-71
2022/08/13 14:36:48;;;;;;;5.65;1.20;;;;;;;;;;5016454;28;20036;-71
2022/08/13 14:39:14;;;;;;;4.82;1.38;;;;;;;;;;5016586;28;20053;-70
2022/08/13 14:41:42;;;;;;;5.63;1.20;;;;;;;;;;5018076;28;20033;-69
2022/08/13 14:44:07;;;;;;;5.10;1.20;;;;;;;;;;5014826;28;20790;-68
2022/08/13 14:46:33;;;;;;;3.72;1.02;;;;;;;;;;5019753;28;20452;-70
2022/08/13 14:48:59;;;;;;;2.38;1.00;;;;;;;;;;5015045;28;20400;-73
2022/08/13 14:51:25;;;;;;;3.08;1.10;;;;;;;;;;5014744;28;20037;-74
2022/08/13 14:53:52;;;;;;;5.32;1.20;;;;;;;;;;5016324;28;20041;-72
2022/08/13 14:56:18;;;;;;;4.47;1.20;;;;;;;;;;5014051;28;20129;-72
2022/08/13 14:58:44;;;;;;;2.85;1.20;;;;;;;;;;5012752;28;20570;-72